Time;durP1;ratioP1;P1;durP2;ratioP2;P2;SDS_P1;SDS_P2;PMS_P1;PMS_P2;Temp;Humidity;BMP_temperature;BMP_pressure;BME280_temperature;BME280_humidity;BME280_pressure;Samples;Min_cycle;Max_cycle;Signal;HPM_P1;HPM_P2
2022/07/09 00:00:23;;;;;;;7.65;3.88;;;17.60;99.90;;;;;;4863744;29;20478;-85
2022/07/09 00:02:49;;;;;;;6.85;3.70;;;17.60;99.90;;;;;;4833491;29;20485;-85
2022/07/09 00:05:14;;;;;;;8.32;3.72;;;17.60;99.90;;;;;;4848425;29;20051;-85
2022/07/09 00:07:40;;;;;;;10.52;4.20;;;17.60;99.90;;;;;;4863433;29;20498;-85
2022/07/09 00:10:07;;;;;;;9.10;4.13;;;17.60;99.90;;;;;;4863140;29;20056;-86
2022/07/09 00:12:33;;;;;;;9.00;3.97;;;17.60;99.90;;;;;;4863787;29;20052;-85
2022/07/09 00:14:58;;;;;;;10.32;4.07;;;17.50;99.90;;;;;;4864630;29;20048;-85
2022/07/09 00:17:25;;;;;;;12.02;4.38;;;17.50;99.90;;;;;;4864531;29;20508;-85
2022/07/09 00:19:51;;;;;;;6.00;3.70;;;17.40;99.90;;;;;;4863883;29;20056;-85
2022/07/09 00:22:17;;;;;;;6.85;4.25;;;17.40;99.90;;;;;;4863337;29;20041;-85
2022/07/09 00:24:43;;;;;;;5.68;3.72;;;17.40;99.90;;;;;;4863775;29;20051;-85
2022/07/09 00:27:09;;;;;;;6.43;3.95;;;17.40;99.90;;;;;;4863416;29;20119;-85
2022/07/09 00:29:34;;;;;;;6.68;3.92;;;17.40;99.90;;;;;;4848688;29;20045;-85
2022/07/09 00:32:00;;;;;;;7.55;3.90;;;17.30;99.90;;;;;;4863560;29;20139;-85
2022/07/09 00:34:26;;;;;;;8.68;4.15;;;17.30;99.90;;;;;;4895094;29;20051;-84
2022/07/09 00:36:51;;;;;;;9.95;3.97;;;17.30;99.90;;;;;;4900684;29;20049;-83
2022/07/09 00:39:17;;;;;;;8.88;4.03;;;17.30;99.90;;;;;;4884273;29;20047;-84
2022/07/09 00:41:43;;;;;;;9.35;3.80;;;17.30;99.90;;;;;;4852906;29;20191;-85
2022/07/09 00:44:08;;;;;;;8.70;4.28;;;17.30;99.90;;;;;;4879269;29;20049;-85
2022/07/09 00:46:34;;;;;;;8.18;4.05;;;17.30;99.90;;;;;;4879650;29;20041;-85
2022/07/09 00:49:06;;;;;;;8.18;3.83;;;17.30;99.90;;;;;;4848261;29;20474;-85
2022/07/09 00:51:32;;;;;;;9.30;4.45;;;17.20;99.90;;;;;;4849808;29;20059;-85
2022/07/09 00:53:59;;;;;;;11.02;4.18;;;17.20;99.90;;;;;;4880419;29;20044;-85
2022/07/09 00:56:30;;;;;;;7.55;3.90;;;17.20;99.90;;;;;;4879958;29;20132;-85
2022/07/09 00:58:56;;;;;;;8.70;3.65;;;17.10;99.90;;;;;;4863645;29;20129;-85
2022/07/09 01:01:22;;;;;;;9.73;4.28;;;17.10;99.90;;;;;;4863656;29;20076;-85
2022/07/09 01:03:48;;;;;;;6.55;4.25;;;17.10;99.90;;;;;;4848259;29;20076;-85
2022/07/09 01:06:15;;;;;;;9.20;4.90;;;17.00;99.90;;;;;;4833301;29;20037;-85
2022/07/09 01:08:41;;;;;;;8.32;4.35;;;17.00;99.90;;;;;;4863514;29;20053;-86
2022/07/09 01:11:06;;;;;;;8.68;4.45;;;16.90;99.90;;;;;;4848287;29;20048;-85
2022/07/09 01:13:32;;;;;;;9.45;4.40;;;16.90;99.90;;;;;;4832776;29;20465;-85
2022/07/09 01:15:58;;;;;;;11.25;4.75;;;16.90;99.90;;;;;;4878804;29;20037;-85
2022/07/09 01:18:24;;;;;;;7.00;4.40;;;16.80;99.90;;;;;;4863295;29;20045;-86
2022/07/09 01:20:51;;;;;;;9.63;4.90;;;16.80;99.90;;;;;;4863377;29;20052;-85
2022/07/09 01:23:18;;;;;;;9.13;4.45;;;16.80;99.90;;;;;;4863598;29;20108;-85
2022/07/09 01:25:44;;;;;;;8.95;4.43;;;16.80;99.90;;;;;;4863686;29;20446;-86
2022/07/09 01:28:10;;;;;;;8.82;4.53;;;16.80;99.90;;;;;;4878853;29;20128;-85
2022/07/09 01:30:38;;;;;;;9.77;5.45;;;16.70;99.90;;;;;;4878944;29;20490;-85
2022/07/09 01:33:04;;;;;;;9.93;4.88;;;16.70;99.90;;;;;;4863326;29;20434;-85
2022/07/09 01:35:30;;;;;;;9.30;4.93;;;16.70;99.90;;;;;;4863258;29;20053;-85
2022/07/09 01:37:56;;;;;;;8.20;4.20;;;16.70;99.90;;;;;;4863509;29;20148;-85
2022/07/09 01:40:22;;;;;;;10.95;5.15;;;16.70;99.90;;;;;;4878347;29;20529;-85
2022/07/09 01:42:48;;;;;;;10.55;4.63;;;16.60;99.90;;;;;;4879124;29;20052;-85
2022/07/09 01:45:17;;;;;;;10.98;5.13;;;16.70;99.90;;;;;;4847881;29;20549;-85
2022/07/09 01:47:43;;;;;;;10.00;5.50;;;16.70;99.90;;;;;;4863889;29;20052;-85
2022/07/09 01:50:09;;;;;;;8.90;4.90;;;16.70;99.90;;;;;;4879762;29;20049;-85
2022/07/09 01:52:36;;;;;;;7.80;5.00;;;16.70;99.90;;;;;;4864429;29;20413;-85
2022/07/09 01:55:02;;;;;;;8.65;5.05;;;16.80;99.90;;;;;;4848476;29;20045;-85
2022/07/09 01:57:28;;;;;;;8.63;5.35;;;16.80;99.90;;;;;;4849451;29;20144;-85
2022/07/09 01:59:54;;;;;;;9.48;4.93;;;16.80;99.90;;;;;;4866008;29;20123;-85
2022/07/09 02:02:20;;;;;;;9.13;4.50;;;16.80;99.90;;;;;;4851708;29;20136;-85
2022/07/09 02:04:46;;;;;;;5.72;3.88;;;16.80;99.90;;;;;;4882823;29;20053;-85
2022/07/09 02:07:13;;;;;;;8.27;4.40;;;16.80;99.90;;;;;;4882124;29;20045;-85
2022/07/09 02:09:39;;;;;;;9.65;4.78;;;16.80;99.90;;;;;;4881595;29;20052;-85
2022/07/09 02:12:05;;;;;;;7.68;4.20;;;16.80;99.90;;;;;;4866261;29;20512;-85
2022/07/09 02:14:31;;;;;;;7.65;4.32;;;16.80;99.90;;;;;;4883002;29;20057;-85
2022/07/09 02:16:57;;;;;;;8.13;5.30;;;16.80;99.90;;;;;;4882824;29;20147;-85
2022/07/09 02:19:23;;;;;;;6.68;3.97;;;16.80;99.90;;;;;;4866029;29;20044;-85
2022/07/09 02:21:49;;;;;;;7.90;4.07;;;16.90;99.90;;;;;;4851647;29;20127;-85
2022/07/09 02:24:15;;;;;;;7.95;4.30;;;16.90;99.90;;;;;;4881804;29;20037;-85
2022/07/09 02:26:41;;;;;;;7.43;4.15;;;16.90;99.90;;;;;;4867824;29;20073;-85
2022/07/09 02:29:07;;;;;;;6.68;3.97;;;16.90;99.90;;;;;;4866016;29;20045;-85
2022/07/09 02:31:33;;;;;;;6.70;4.05;;;16.90;99.90;;;;;;4882033;29;20486;-85
2022/07/09 02:33:59;;;;;;;8.25;4.30;;;16.90;99.90;;;;;;4882032;29;20048;-85
2022/07/09 02:36:24;;;;;;;5.93;4.30;;;16.90;99.90;;;;;;4865982;29;20057;-85
2022/07/09 02:38:50;;;;;;;7.50;3.63;;;16.90;99.90;;;;;;4881942;29;20052;-85
2022/07/09 02:41:16;;;;;;;6.45;4.22;;;16.90;99.90;;;;;;4881354;29;20064;-85
2022/07/09 02:43:45;;;;;;;6.75;4.00;;;16.90;99.90;;;;;;4865941;29;20056;-85
2022/07/09 02:46:11;;;;;;;8.27;4.53;;;16.90;99.90;;;;;;4865410;29;20045;-84
2022/07/09 02:48:37;;;;;;;6.72;4.38;;;16.90;99.90;;;;;;4881612;29;20044;-85
2022/07/09 02:51:04;;;;;;;7.45;4.40;;;16.90;99.90;;;;;;4881158;29;20093;-85
2022/07/09 02:53:30;;;;;;;5.95;4.40;;;16.90;99.90;;;;;;4882151;29;20516;-85
2022/07/09 02:55:55;;;;;;;8.63;4.57;;;16.90;99.90;;;;;;4850998;29;20049;-85
2022/07/09 02:58:21;;;;;;;7.55;4.03;;;16.90;99.90;;;;;;4851017;29;20077;-86
2022/07/09 03:00:47;;;;;;;8.38;4.70;;;16.90;99.90;;;;;;4865918;29;20454;-85
2022/07/09 03:03:13;;;;;;;8.75;4.63;;;16.90;99.90;;;;;;4865574;29;21103;-85
2022/07/09 03:05:39;;;;;;;9.55;4.40;;;16.90;99.90;;;;;;4881048;29;20079;-84
2022/07/09 03:08:05;;;;;;;6.63;4.07;;;16.90;99.90;;;;;;4865146;29;20056;-85
2022/07/09 03:10:31;;;;;;;6.13;4.13;;;16.90;99.90;;;;;;4880600;29;20053;-85
2022/07/09 03:12:57;;;;;;;9.40;4.70;;;16.90;99.90;;;;;;4865570;29;20073;-85
2022/07/09 03:15:23;;;;;;;7.95;4.80;;;16.90;99.90;;;;;;4880298;29;20053;-85
2022/07/09 03:17:48;;;;;;;7.75;4.80;;;16.90;99.90;;;;;;4849544;29;20057;-85
2022/07/09 03:20:14;;;;;;;7.20;4.25;;;16.90;99.90;;;;;;4880478;29;20044;-84
2022/07/09 03:22:41;;;;;;;6.85;4.60;;;16.90;99.90;;;;;;4864603;29;20617;-85
2022/07/09 03:25:07;;;;;;;8.23;4.60;;;16.90;99.90;;;;;;4865630;29;20041;-85
2022/07/09 03:27:34;;;;;;;7.05;4.00;;;16.90;99.90;;;;;;4880232;29;20041;-86
2022/07/09 03:30:01;;;;;;;8.52;4.03;;;16.90;99.90;;;;;;4880498;29;20465;-85
2022/07/09 03:32:27;;;;;;;7.93;4.47;;;16.90;99.90;;;;;;4864936;29;20049;-86
2022/07/09 03:34:53;;;;;;;8.10;4.57;;;16.90;99.90;;;;;;4880464;29;20200;-85
2022/07/09 03:37:19;;;;;;;8.80;4.95;;;16.90;99.90;;;;;;4866271;29;20455;-86
2022/07/09 03:39:45;;;;;;;11.13;6.00;;;16.90;99.90;;;;;;4881513;29;20045;-85
2022/07/09 03:42:11;;;;;;;7.28;4.80;;;16.90;99.90;;;;;;4880304;29;20714;-85
2022/07/09 03:44:37;;;;;;;9.18;4.93;;;16.90;99.90;;;;;;4864892;29;20045;-85
2022/07/09 03:47:04;;;;;;;9.75;4.93;;;17.00;99.90;;;;;;4849572;29;20083;-85
2022/07/09 03:49:30;;;;;;;9.95;4.15;;;17.00;99.90;;;;;;4864713;29;20056;-86
2022/07/09 03:51:56;;;;;;;6.13;4.70;;;17.00;99.90;;;;;;4864471;29;20136;-85
2022/07/09 03:54:22;;;;;;;6.20;4.55;;;17.00;99.90;;;;;;4864413;29;20076;-86
2022/07/09 03:56:48;;;;;;;7.78;4.68;;;17.00;99.90;;;;;;4864114;29;20041;-86
2022/07/09 03:59:13;;;;;;;8.05;4.57;;;17.00;99.90;;;;;;4878925;29;20104;-85
2022/07/09 04:01:39;;;;;;;7.85;4.95;;;17.00;99.90;;;;;;4879370;29;20124;-86
2022/07/09 04:04:05;;;;;;;10.27;4.53;;;17.00;99.90;;;;;;4850360;29;20065;-85
2022/07/09 04:06:30;;;;;;;6.80;4.45;;;17.00;99.90;;;;;;4865882;29;20052;-85
2022/07/09 04:08:56;;;;;;;9.10;5.15;;;17.00;99.90;;;;;;4864643;29;20072;-85
2022/07/09 04:11:22;;;;;;;9.00;4.85;;;17.00;99.90;;;;;;4864374;29;20056;-85
2022/07/09 04:13:48;;;;;;;8.20;4.60;;;17.00;99.90;;;;;;4880865;29;20037;-85
2022/07/09 04:16:15;;;;;;;7.70;4.78;;;17.00;99.90;;;;;;4880170;29;20120;-86
2022/07/09 04:18:44;;;;;;;7.60;4.40;;;17.00;99.90;;;;;;4880376;29;20052;-86
2022/07/09 04:21:10;;;;;;;6.25;4.38;;;17.00;99.90;;;;;;4880020;29;20052;-85
2022/07/09 04:23:36;;;;;;;7.50;4.68;;;17.00;99.90;;;;;;4880743;29;20044;-85
2022/07/09 04:26:02;;;;;;;7.95;4.70;;;17.00;99.90;;;;;;4879862;29;20044;-85
2022/07/09 04:28:28;;;;;;;8.60;5.00;;;17.00;99.90;;;;;;4865190;29;20049;-86
2022/07/09 04:30:53;;;;;;;8.55;5.10;;;17.00;99.90;;;;;;4849651;29;20064;-86
2022/07/09 04:33:19;;;;;;;8.18;5.32;;;17.00;99.90;;;;;;4879998;29;20521;-85
2022/07/09 04:35:45;;;;;;;10.45;5.40;;;17.00;99.90;;;;;;4865000;29;20132;-86
2022/07/09 04:38:12;;;;;;;6.65;5.10;;;17.00;99.90;;;;;;4865545;29;20083;-85
2022/07/09 04:40:39;;;;;;;8.80;5.30;;;17.00;99.90;;;;;;4848420;29;20049;-85
2022/07/09 04:43:06;;;;;;;8.68;5.07;;;17.00;99.90;;;;;;4865787;29;20056;-86
2022/07/09 04:45:34;;;;;;;6.72;5.30;;;17.00;99.90;;;;;;4881637;29;20044;-85
2022/07/09 04:48:00;;;;;;;9.38;5.60;;;17.00;99.90;;;;;;4866226;29;20393;-86
2022/07/09 04:50:26;;;;;;;8.25;5.30;;;17.10;99.90;;;;;;4866040;29;20472;-85
2022/07/09 04:52:52;;;;;;;8.38;5.03;;;17.10;99.90;;;;;;4865103;29;20087;-86
2022/07/09 04:55:18;;;;;;;8.10;5.43;;;17.10;99.90;;;;;;4849332;29;20052;-85
2022/07/09 04:57:44;;;;;;;7.82;5.25;;;17.10;99.90;;;;;;4863582;29;20045;-85
2022/07/09 05:00:11;;;;;;;11.95;5.30;;;17.10;99.90;;;;;;4863347;29;20461;-86
2022/07/09 05:02:38;;;;;;;6.15;4.57;;;17.10;99.90;;;;;;4864088;29;20045;-85
2022/07/09 05:05:06;;;;;;;6.70;4.82;;;17.10;99.90;;;;;;4879315;29;20078;-85
2022/07/09 05:07:33;;;;;;;8.93;4.63;;;17.10;99.90;;;;;;4864218;29;20044;-85
2022/07/09 05:10:01;;;;;;;11.73;4.82;;;17.20;99.90;;;;;;4864041;29;20393;-86
2022/07/09 05:12:27;;;;;;;8.10;4.78;;;17.20;99.90;;;;;;4863957;29;20048;-85
2022/07/09 05:14:53;;;;;;;5.00;4.22;;;17.20;99.90;;;;;;4833975;29;20049;-86
2022/07/09 05:17:18;;;;;;;6.55;4.72;;;17.20;99.90;;;;;;4849346;29;20501;-86
2022/07/09 05:19:44;;;;;;;6.93;4.65;;;17.30;99.90;;;;;;4849715;29;20037;-85
2022/07/09 05:22:10;;;;;;;9.05;4.47;;;17.30;99.90;;;;;;4848364;29;20457;-85
2022/07/09 05:24:36;;;;;;;6.00;3.95;;;17.30;99.90;;;;;;4863594;29;20494;-86
2022/07/09 05:27:02;;;;;;;7.43;4.22;;;17.30;99.90;;;;;;4832905;29;20037;-86
2022/07/09 05:29:27;;;;;;;8.23;4.32;;;17.40;99.90;;;;;;4863679;29;20041;-86
2022/07/09 05:31:53;;;;;;;5.90;3.85;;;17.40;99.90;;;;;;4863673;29;20040;-86
2022/07/09 05:34:19;;;;;;;6.85;4.10;;;17.50;99.90;;;;;;4867821;29;20045;-86
2022/07/09 05:36:44;;;;;;;7.10;3.97;;;17.50;99.90;;;;;;4882975;29;20454;-85
2022/07/09 05:39:10;;;;;;;8.10;4.25;;;17.50;99.90;;;;;;4868803;29;20049;-86
2022/07/09 05:41:36;;;;;;;5.10;3.70;;;17.50;99.90;;;;;;4868279;29;20053;-86
2022/07/09 05:44:04;;;;;;;5.70;3.53;;;17.60;99.90;;;;;;4884064;29;20100;-86
2022/07/09 05:46:30;;;;;;;7.93;4.00;;;17.60;99.90;;;;;;4883685;29;20041;-86
2022/07/09 05:48:56;;;;;;;5.78;3.83;;;17.70;99.90;;;;;;4884174;29;20037;-85
2022/07/09 05:51:22;;;;;;;6.40;3.38;;;17.80;99.90;;;;;;4884238;29;20430;-85
2022/07/09 05:53:48;;;;;;;7.85;4.00;;;17.90;99.90;;;;;;4884327;29;20059;-85
2022/07/09 05:56:14;;;;;;;5.13;3.45;;;17.90;99.90;;;;;;4868120;29;20481;-86
2022/07/09 05:58:39;;;;;;;7.43;4.18;;;18.00;99.90;;;;;;4853564;29;20109;-86
2022/07/09 06:01:06;;;;;;;5.65;3.42;;;18.00;99.90;;;;;;4868280;29;20041;-85
2022/07/09 06:03:31;;;;;;;5.07;3.30;;;18.00;99.90;;;;;;4869334;29;20055;-86
2022/07/09 06:05:57;;;;;;;5.15;2.88;;;18.10;99.90;;;;;;4883530;29;20069;-86
2022/07/09 06:08:24;;;;;;;5.28;3.22;;;18.10;99.90;;;;;;4885136;29;20032;-85
2022/07/09 06:10:50;;;;;;;6.18;3.47;;;18.10;99.90;;;;;;4854372;29;20041;-85
2022/07/09 06:13:16;;;;;;;5.82;3.08;;;18.10;99.90;;;;;;4868861;29;20053;-85
2022/07/09 06:15:42;;;;;;;7.43;3.20;;;18.10;99.90;;;;;;4852339;29;20045;-85
2022/07/09 06:18:07;;;;;;;6.18;3.38;;;18.20;99.90;;;;;;4852193;29;20044;-85
2022/07/09 06:20:33;;;;;;;4.57;2.90;;;18.10;99.90;;;;;;4867670;29;20045;-85
2022/07/09 06:22:59;;;;;;;4.28;2.80;;;18.20;99.90;;;;;;4836633;29;20108;-85
2022/07/09 06:25:25;;;;;;;4.40;2.97;;;18.20;99.90;;;;;;4882619;29;20041;-87
2022/07/09 06:27:51;;;;;;;5.88;2.92;;;18.20;99.90;;;;;;4867495;29;20044;-85
2022/07/09 06:30:16;;;;;;;4.93;2.83;;;18.20;99.90;;;;;;4882318;29;20056;-85
2022/07/09 06:32:42;;;;;;;4.25;2.65;;;18.20;99.90;;;;;;4882156;29;20048;-85
2022/07/09 06:35:08;;;;;;;3.63;2.45;;;18.20;99.90;;;;;;4850362;29;20045;-84
2022/07/09 06:37:34;;;;;;;6.05;2.50;;;18.30;99.90;;;;;;4882598;29;20045;-85
2022/07/09 06:40:00;;;;;;;5.60;2.20;;;18.30;99.90;;;;;;4880797;29;20045;-85
2022/07/09 06:42:26;;;;;;;3.95;2.45;;;18.30;99.90;;;;;;4835580;29;20505;-84
2022/07/09 06:44:52;;;;;;;5.22;2.55;;;18.30;99.90;;;;;;4881978;29;20085;-84
2022/07/09 06:47:17;;;;;;;5.07;2.42;;;18.30;99.90;;;;;;4866777;29;20049;-85
2022/07/09 06:49:43;;;;;;;3.72;2.05;;;18.30;99.90;;;;;;4881970;29;20080;-85
2022/07/09 06:52:09;;;;;;;4.95;2.33;;;18.40;99.90;;;;;;4850868;29;20074;-85
2022/07/09 06:54:36;;;;;;;2.92;1.95;;;18.40;99.90;;;;;;4865506;29;20105;-87
2022/07/09 06:57:02;;;;;;;8.07;2.00;;;18.40;99.90;;;;;;4865609;29;20077;-84
2022/07/09 06:59:29;;;;;;;3.25;2.00;;;18.40;99.90;;;;;;4881314;29;20041;-84
2022/07/09 07:01:55;;;;;;;3.92;2.10;;;18.50;99.90;;;;;;4881130;29;20041;-85
2022/07/09 07:04:21;;;;;;;4.45;2.13;;;18.60;99.90;;;;;;4880793;29;20529;-85
2022/07/09 07:06:48;;;;;;;5.65;2.17;;;18.60;99.90;;;;;;4865845;29;20083;-85
2022/07/09 07:09:23;;;;;;;4.05;2.10;;;18.60;99.90;;;;;;4865404;29;20398;-85
2022/07/09 07:11:49;;;;;;;4.05;2.13;;;18.60;99.90;;;;;;4879964;29;20056;-85
2022/07/09 07:14:16;;;;;;;4.20;2.10;;;18.70;99.90;;;;;;4865360;29;20048;-85
2022/07/09 07:16:43;;;;;;;5.00;2.05;;;18.80;99.90;;;;;;4880990;29;20060;-85
2022/07/09 07:19:10;;;;;;;4.32;1.92;;;18.80;99.90;;;;;;4849453;29;20041;-85
2022/07/09 07:21:36;;;;;;;3.35;1.90;;;18.90;99.90;;;;;;4879900;29;20104;-85
2022/07/09 07:24:03;;;;;;;3.85;1.90;;;19.00;99.90;;;;;;4879110;29;20048;-85
2022/07/09 07:26:28;;;;;;;3.22;2.10;;;19.10;99.90;;;;;;4849076;29;20041;-85
2022/07/09 07:28:54;;;;;;;6.68;2.60;;;19.10;99.90;;;;;;4849476;29;20059;-85
2022/07/09 07:31:21;;;;;;;5.35;2.03;;;19.20;99.90;;;;;;4864725;29;20047;-85
2022/07/09 07:33:47;;;;;;;4.65;2.20;;;19.20;99.90;;;;;;4864214;29;20128;-85
2022/07/09 07:36:12;;;;;;;6.82;2.30;;;19.30;99.90;;;;;;4864746;29;20072;-85
2022/07/09 07:38:38;;;;;;;2.80;2.17;;;19.40;99.90;;;;;;4848974;29;20041;-85
2022/07/09 07:41:04;;;;;;;3.67;1.83;;;19.40;99.90;;;;;;4848919;29;20119;-85
2022/07/09 07:43:29;;;;;;;3.70;2.00;;;19.50;99.90;;;;;;4864566;29;20072;-85
2022/07/09 07:45:55;;;;;;;3.65;2.28;;;19.50;99.90;;;;;;4866029;29;20083;-85
2022/07/09 07:48:21;;;;;;;4.13;2.13;;;19.50;99.90;;;;;;4865170;29;20085;-85
2022/07/09 07:50:47;;;;;;;3.60;1.80;;;19.50;99.90;;;;;;4865183;29;20132;-85
2022/07/09 07:53:12;;;;;;;2.83;1.83;;;19.50;99.90;;;;;;4880261;29;20131;-84
2022/07/09 07:55:39;;;;;;;4.32;1.77;;;19.50;99.90;;;;;;4849834;29;20077;-85
2022/07/09 07:58:05;;;;;;;8.38;2.28;;;19.50;99.90;;;;;;4865023;29;20052;-84
2022/07/09 08:00:31;;;;;;;5.18;2.53;;;19.40;99.90;;;;;;4880525;29;20128;-85
2022/07/09 08:02:57;;;;;;;4.25;2.05;;;19.50;99.90;;;;;;4880607;29;20087;-84
2022/07/09 08:05:23;;;;;;;3.97;2.10;;;19.50;99.90;;;;;;4864188;29;20454;-86
2022/07/09 08:07:48;;;;;;;3.88;2.10;;;19.50;99.90;;;;;;4863852;29;20406;-85
2022/07/09 08:10:14;;;;;;;4.88;1.80;;;19.50;99.90;;;;;;4864228;29;20045;-86
2022/07/09 08:12:40;;;;;;;5.18;1.95;;;19.60;99.90;;;;;;4879823;29;20127;-86
2022/07/09 08:15:06;;;;;;;3.65;1.90;;;19.60;99.90;;;;;;4848677;29;20140;-85
2022/07/09 08:17:32;;;;;;;3.65;1.80;;;19.70;99.90;;;;;;4864545;29;20048;-86
2022/07/09 08:19:57;;;;;;;4.68;1.88;;;19.70;99.90;;;;;;4849039;29;20127;-86
2022/07/09 08:22:23;;;;;;;3.17;1.70;;;19.80;99.90;;;;;;4881007;29;20045;-85
2022/07/09 08:24:49;;;;;;;4.22;2.03;;;19.80;99.90;;;;;;4864617;29;20477;-86
2022/07/09 08:27:14;;;;;;;3.92;1.60;;;19.80;99.90;;;;;;4864093;29;20435;-85
2022/07/09 08:29:40;;;;;;;1.85;1.60;;;19.80;99.90;;;;;;4863434;29;20100;-85
2022/07/09 08:32:06;;;;;;;6.50;1.92;;;19.90;99.90;;;;;;4834570;29;20049;-86
2022/07/09 08:34:32;;;;;;;6.13;2.40;;;19.90;99.90;;;;;;4864757;29;20049;-86
2022/07/09 08:36:57;;;;;;;3.63;2.08;;;19.90;99.90;;;;;;4865301;29;20067;-86
2022/07/09 08:39:26;;;;;;;4.38;2.03;;;19.80;99.90;;;;;;4880233;29;20067;-85
2022/07/09 08:41:52;;;;;;;3.05;2.17;;;19.80;99.90;;;;;;4865934;29;20485;-85
2022/07/09 08:44:20;;;;;;;4.63;2.38;;;19.90;99.90;;;;;;4880983;29;20041;-86
2022/07/09 08:46:46;;;;;;;4.43;2.80;;;19.90;99.90;;;;;;4867045;29;20149;-85
2022/07/09 08:49:14;;;;;;;5.88;2.75;;;20.00;99.90;;;;;;4884146;29;20049;-85
2022/07/09 08:51:42;;;;;;;5.55;3.00;;;20.20;99.90;;;;;;4869193;29;20040;-85
2022/07/09 08:54:08;;;;;;;6.13;2.75;;;20.20;99.90;;;;;;4879391;29;20084;-86
2022/07/09 08:56:35;;;;;;;3.65;2.03;;;20.40;99.90;;;;;;4864563;29;20105;-85
2022/07/09 08:59:01;;;;;;;3.30;1.70;;;20.50;99.90;;;;;;4864266;29;20109;-86
2022/07/09 09:01:27;;;;;;;5.03;2.08;;;20.50;99.90;;;;;;4833320;29;20045;-86
2022/07/09 09:03:54;;;;;;;7.38;1.90;;;20.60;99.90;;;;;;4863169;29;20072;-86
2022/07/09 09:06:23;;;;;;;3.22;1.55;;;20.70;99.90;;;;;;4862666;29;20041;-85
2022/07/09 09:08:52;;;;;;;2.80;1.40;;;20.80;99.90;;;;;;4868554;29;20389;-85
2022/07/09 09:11:24;;;;;;;3.55;1.70;;;20.80;99.90;;;;;;4868554;29;20045;-86
2022/07/09 09:13:51;;;;;;;2.97;1.30;;;20.90;99.90;;;;;;4883537;29;20041;-85
2022/07/09 09:16:18;;;;;;;2.17;1.33;;;21.00;99.90;;;;;;4867899;29;20366;-85
2022/07/09 09:18:47;;;;;;;4.68;1.20;;;21.10;99.90;;;;;;4882955;29;20049;-86
2022/07/09 09:21:14;;;;;;;4.05;1.50;;;21.10;99.90;;;;;;4867866;29;20048;-85
2022/07/09 09:23:47;;;;;;;3.03;1.40;;;21.20;99.90;;;;;;4883696;29;20041;-86
2022/07/09 09:26:17;;;;;;;5.18;1.48;;;21.20;99.90;;;;;;4882841;29;20048;-86
2022/07/09 09:28:47;;;;;;;4.90;1.52;;;21.20;99.90;;;;;;4883268;29;20041;-85
2022/07/09 09:31:19;;;;;;;4.10;1.40;;;21.10;99.90;;;;;;4867848;29;20395;-84
2022/07/09 09:33:45;;;;;;;3.33;1.30;;;21.10;99.90;;;;;;4882576;29;20045;-85
2022/07/09 09:36:11;;;;;;;4.63;2.05;;;21.00;99.90;;;;;;4867416;29;20056;-85
2022/07/09 09:38:36;;;;;;;4.18;1.83;;;21.00;99.90;;;;;;4867589;29;20044;-85
2022/07/09 09:41:02;;;;;;;4.50;1.52;;;21.10;99.90;;;;;;4850477;29;20053;-86
2022/07/09 09:43:31;;;;;;;3.35;1.40;;;21.10;99.90;;;;;;4866674;29;20049;-85
2022/07/09 09:45:59;;;;;;;2.25;1.45;;;21.20;99.90;;;;;;4851439;29;20037;-86
2022/07/09 09:48:25;;;;;;;7.97;1.40;;;21.20;99.90;;;;;;4881940;29;20124;-85
2022/07/09 09:50:55;;;;;;;2.78;1.35;;;21.20;99.90;;;;;;4881527;29;20084;-86
2022/07/09 09:53:23;;;;;;;7.60;1.40;;;21.30;99.90;;;;;;4866223;29;20045;-86
2022/07/09 09:55:50;;;;;;;3.70;1.40;;;21.30;99.90;;;;;;4881906;29;20109;-86
2022/07/09 09:58:16;;;;;;;10.13;1.33;;;21.30;99.90;;;;;;4881428;29;20473;-86
2022/07/09 10:00:42;;;;;;;4.45;1.23;;;21.40;99.90;;;;;;4835853;29;20093;-86
2022/07/09 10:03:12;;;;;;;3.50;1.50;;;21.40;99.90;;;;;;4851230;29;20044;-86
2022/07/09 10:05:38;;;;;;;7.72;1.25;;;21.50;99.90;;;;;;4865937;29;20037;-86
2022/07/09 10:08:04;;;;;;;5.20;1.40;;;21.60;99.90;;;;;;4866067;29;20509;-85
2022/07/09 10:10:29;;;;;;;3.92;1.20;;;21.80;99.90;;;;;;4850049;29;20483;-86
2022/07/09 10:12:55;;;;;;;4.80;1.45;;;21.90;99.90;;;;;;4881148;29;20045;-86
2022/07/09 10:15:26;;;;;;;3.45;1.17;;;22.00;99.90;;;;;;4865507;29;20080;-85
2022/07/09 10:17:53;;;;;;;16.48;1.65;;;22.10;99.90;;;;;;4882079;29;20049;-86
2022/07/09 10:20:33;;;;;;;3.13;1.02;;;22.10;99.90;;;;;;4880130;29;20147;-85
2022/07/09 10:22:59;;;;;;;7.15;1.33;;;22.10;99.90;;;;;;4865791;29;20482;-85
2022/07/09 10:25:30;;;;;;;13.65;1.60;;;22.10;99.90;;;;;;4881520;29;20482;-86
2022/07/09 10:27:56;;;;;;;4.65;1.08;;;22.10;99.90;;;;;;4867057;29;20439;-85
2022/07/09 10:30:25;;;;;;;8.82;1.40;;;22.20;99.90;;;;;;4881299;29;20490;-85
2022/07/09 10:33:04;;;;;;;6.25;1.48;;;22.10;99.90;;;;;;4881380;29;20085;-86
2022/07/09 10:35:30;;;;;;;2.72;1.30;;;22.00;99.90;;;;;;4882032;29;20045;-86
2022/07/09 10:37:56;;;;;;;11.27;1.73;;;22.00;99.90;;;;;;4867006;29;20091;-86
2022/07/09 10:40:24;;;;;;;11.07;1.50;;;21.90;99.90;;;;;;4880775;29;20501;-85
2022/07/09 10:43:02;;;;;;;4.65;1.27;;;21.90;99.90;;;;;;4865933;29;20057;-85
2022/07/09 10:45:35;;;;;;;4.75;1.38;;;21.80;99.90;;;;;;4881409;29;20087;-86
2022/07/09 10:48:03;;;;;;;5.32;1.42;;;21.60;99.90;;;;;;4865076;29;20063;-85
2022/07/09 10:50:31;;;;;;;7.20;1.48;;;21.50;99.90;;;;;;4865288;29;20486;-85
2022/07/09 10:53:02;;;;;;;4.38;1.40;;;21.40;99.90;;;;;;4866145;29;20080;-85
2022/07/09 10:55:30;;;;;;;4.20;1.17;;;21.50;99.90;;;;;;4867110;29;20108;-85
2022/07/09 10:57:57;;;;;;;7.10;1.30;;;21.60;99.90;;;;;;4865204;29;20088;-86
2022/07/09 11:00:28;;;;;;;5.03;1.20;;;21.70;99.90;;;;;;4865840;29;20045;-85
2022/07/09 11:03:04;;;;;;;6.63;1.40;;;21.80;99.90;;;;;;4865900;29;20478;-85
2022/07/09 11:05:32;;;;;;;5.05;1.50;;;21.80;99.90;;;;;;4866109;29;20033;-84
2022/07/09 11:08:00;;;;;;;6.43;1.63;;;21.80;99.90;;;;;;4865654;29;20045;-85
2022/07/09 11:10:27;;;;;;;9.80;1.50;;;21.80;99.90;;;;;;4866150;29;20417;-85
2022/07/09 11:12:59;;;;;;;4.88;1.40;;;21.90;99.90;;;;;;4865312;29;20131;-85
2022/07/09 11:15:29;;;;;;;3.42;1.10;;;22.00;99.90;;;;;;4865546;29;20133;-85
2022/07/09 11:18:03;;;;;;;8.75;1.52;;;22.10;99.90;;;;;;4865147;29;20080;-85
2022/07/09 11:20:40;;;;;;;4.47;1.40;;;22.20;99.90;;;;;;4865325;29;20093;-86
2022/07/09 11:23:08;;;;;;;13.32;1.88;;;22.40;99.90;;;;;;4850567;29;20438;-85
2022/07/09 11:25:34;;;;;;;11.50;1.30;;;22.50;99.90;;;;;;4865084;29;20422;-85
2022/07/09 11:28:00;;;;;;;4.60;1.30;;;22.70;99.90;;;;;;4865780;29;20040;-85
2022/07/09 11:30:27;;;;;;;4.43;0.95;;;22.80;99.90;;;;;;4881203;29;20077;-86
2022/07/09 11:32:53;;;;;;;5.32;1.10;;;22.80;99.90;;;;;;4883203;29;20089;-85
2022/07/09 11:35:33;;;;;;;3.80;1.10;;;22.80;99.90;;;;;;4898977;29;20436;-84
2022/07/09 11:38:06;;;;;;;7.60;1.50;;;22.80;99.90;;;;;;4902069;29;20096;-85
2022/07/09 11:40:32;;;;;;;9.30;1.38;;;22.70;99.90;;;;;;4894617;29;20150;-85
2022/07/09 11:42:58;;;;;;;15.85;2.35;;;22.60;99.90;;;;;;4812727;29;20066;-86
2022/07/09 11:45:30;;;;;;;4.72;1.55;;;22.50;99.90;;;;;;4842732;29;20049;-85
2022/07/09 11:48:07;;;;;;;13.85;1.90;;;22.50;99.90;;;;;;4859755;29;20049;-86
2022/07/09 11:50:40;;;;;;;6.93;1.20;;;22.50;99.90;;;;;;4842393;29;20042;-85
2022/07/09 11:53:06;;;;;;;3.92;1.40;;;22.60;99.90;;;;;;4844633;29;20057;-85
2022/07/09 11:55:33;;;;;;;5.25;1.30;;;22.70;99.90;;;;;;4842538;29;20042;-84
2022/07/09 11:58:04;;;;;;;6.80;1.55;;;22.80;99.90;;;;;;4859377;29;20098;-84
2022/07/09 12:00:35;;;;;;;6.22;1.83;;;22.80;99.90;;;;;;4843099;29;20042;-86
2022/07/09 12:03:01;;;;;;;7.10;1.77;;;22.80;99.90;;;;;;4828506;29;20061;-85
2022/07/09 12:05:39;;;;;;;5.25;1.65;;;22.50;99.90;;;;;;4826509;29;20045;-85
2022/07/09 12:08:07;;;;;;;5.97;1.85;;;22.20;99.90;;;;;;4841640;29;20063;-85
2022/07/09 12:10:38;;;;;;;9.65;1.70;;;21.90;99.90;;;;;;4827786;29;20390;-85
2022/07/09 12:13:05;;;;;;;6.50;1.77;;;21.60;99.90;;;;;;4828305;29;20046;-85
2022/07/09 12:15:31;;;;;;;5.00;1.30;;;21.30;99.90;;;;;;4842352;29;20529;-85
2022/07/09 12:17:59;;;;;;;7.95;1.77;;;21.40;99.90;;;;;;4843154;29;20078;-85
2022/07/09 12:20:30;;;;;;;8.45;1.70;;;21.40;99.90;;;;;;4827714;29;20042;-85
2022/07/09 12:22:56;;;;;;;7.40;2.13;;;21.40;99.90;;;;;;4843204;29;20050;-85
2022/07/09 12:25:22;;;;;;;7.78;2.42;;;21.50;99.90;;;;;;4842430;29;20501;-85
2022/07/09 12:27:51;;;;;;;10.82;1.90;;;21.80;99.90;;;;;;4857499;29;20083;-85
2022/07/09 12:30:17;;;;;;;5.57;1.48;;;22.00;99.90;;;;;;4826952;29;20046;-85
2022/07/09 12:32:44;;;;;;;4.13;1.40;;;22.00;99.90;;;;;;4841902;29;20086;-85
2022/07/09 12:35:10;;;;;;;6.75;1.60;;;22.00;99.90;;;;;;4842345;29;20098;-85
2022/07/09 12:37:39;;;;;;;6.13;1.88;;;22.10;99.90;;;;;;4841145;29;20491;-86
2022/07/09 12:40:07;;;;;;;5.65;1.30;;;22.20;99.90;;;;;;4857048;29;20046;-85
2022/07/09 12:42:33;;;;;;;5.10;1.90;;;22.30;99.90;;;;;;4871583;29;20057;-85